Time;durP1;ratioP1;P1;durP2;ratioP2;P2;SDS_P1;SDS_P2;PMS_P1;PMS_P2;Temp;Humidity;BMP_temperature;BMP_pressure;BME280_temperature;BME280_humidity;BME280_pressure;Samples;Min_cycle;Max_cycle;Signal;HPM_P1;HPM_P2
2023/12/14 00:01:21;;;;;;;1.20;1.10;;;5.00;99.90;;;;;;5094453;28;20040;-70
2023/12/14 00:03:47;;;;;;;1.20;1.10;;;5.00;99.90;;;;;;5094445;28;20452;-70
2023/12/14 00:06:14;;;;;;;2.55;1.90;;;5.00;99.90;;;;;;5094369;28;20079;-70
2023/12/14 00:08:40;;;;;;;1.10;1.00;;;5.00;99.90;;;;;;5094377;28;20043;-70
2023/12/14 00:11:10;;;;;;;1.10;1.00;;;5.00;99.90;;;;;;5094326;28;20073;-70
2023/12/14 00:13:37;;;;;;;0.90;0.90;;;5.00;99.90;;;;;;5094256;28;20059;-70
2023/12/14 00:16:02;;;;;;;1.00;1.00;;;5.00;99.90;;;;;;5094111;28;20043;-70
2023/12/14 00:18:28;;;;;;;1.05;1.00;;;5.00;99.90;;;;;;5094664;28;20048;-70
2023/12/14 00:20:54;;;;;;;1.27;1.17;;;5.00;99.90;;;;;;5094015;28;20044;-70
2023/12/14 00:23:23;;;;;;;1.23;1.13;;;5.00;99.90;;;;;;5094142;28;20046;-70
2023/12/14 00:25:49;;;;;;;1.05;1.00;;;5.00;99.90;;;;;;5093774;28;20464;-70
2023/12/14 00:28:14;;;;;;;1.40;1.30;;;5.00;99.90;;;;;;5094023;28;20119;-70
2023/12/14 00:30:40;;;;;;;0.90;0.90;;;5.00;99.90;;;;;;5093777;28;20048;-70
2023/12/14 00:33:06;;;;;;;1.33;1.23;;;5.00;99.90;;;;;;5093956;28;20040;-70
2023/12/14 00:35:31;;;;;;;0.93;0.93;;;5.00;99.90;;;;;;5094045;28;20036;-70
2023/12/14 00:37:57;;;;;;;1.10;1.00;;;5.00;99.90;;;;;;5093935;28;20036;-70
2023/12/14 00:40:23;;;;;;;1.90;1.80;;;5.00;99.90;;;;;;5093767;28;20063;-70
2023/12/14 00:42:48;;;;;;;1.05;1.02;;;5.00;99.90;;;;;;5093827;28;20349;-70
2023/12/14 00:45:14;;;;;;;1.10;1.00;;;5.00;99.90;;;;;;5093773;28;20044;-70
2023/12/14 00:47:40;;;;;;;1.48;1.38;;;5.00;99.90;;;;;;5094265;28;20042;-70
2023/12/14 00:50:06;;;;;;;1.75;1.65;;;5.00;99.90;;;;;;5094114;28;20372;-70
2023/12/14 00:52:31;;;;;;;0.90;0.90;;;5.00;99.90;;;;;;5094038;28;20086;-70
2023/12/14 00:54:57;;;;;;;1.10;1.00;;;5.50;99.90;;;;;;5093790;28;20079;-70
2023/12/14 00:57:23;;;;;;;1.33;1.23;;;4.90;99.90;;;;;;5093951;28;20546;-70
2023/12/14 00:59:48;;;;;;;1.10;1.00;;;4.90;99.90;;;;;;5095200;28;20115;-70
2023/12/14 01:02:14;;;;;;;0.90;0.90;;;4.90;99.90;;;;;;5097641;28;20088;-70
2023/12/14 01:04:39;;;;;;;1.10;1.00;;;4.90;99.90;;;;;;5097861;28;20047;-70
2023/12/14 01:07:05;;;;;;;1.58;1.48;;;4.90;99.90;;;;;;5096738;28;20185;-70
2023/12/14 01:09:30;;;;;;;0.90;0.90;;;4.90;99.90;;;;;;5097701;28;20048;-70
2023/12/14 01:11:56;;;;;;;1.10;1.00;;;4.90;99.90;;;;;;5097407;28;20036;-70
2023/12/14 01:14:22;;;;;;;1.70;1.60;;;4.90;99.90;;;;;;5097627;28;20029;-70
2023/12/14 01:16:47;;;;;;;0.90;0.90;;;4.90;99.90;;;;;;5097135;28;20109;-70
2023/12/14 01:19:13;;;;;;;1.75;1.60;;;4.90;99.90;;;;;;5097608;28;20032;-70
2023/12/14 01:21:38;;;;;;;1.20;1.10;;;4.90;99.90;;;;;;5097584;28;20036;-70
2023/12/14 01:24:04;;;;;;;1.40;1.30;;;4.90;99.90;;;;;;5097541;28;20505;-70
2023/12/14 01:26:30;;;;;;;1.63;1.53;;;4.90;99.90;;;;;;5097421;28;20486;-70
2023/12/14 01:28:56;;;;;;;0.90;0.90;;;5.40;99.90;;;;;;5097400;28;20036;-70
2023/12/14 01:31:24;;;;;;;1.05;0.98;;;5.00;99.90;;;;;;5097349;28;20052;-70
2023/12/14 01:33:50;;;;;;;0.90;0.90;;;4.90;99.90;;;;;;5097347;28;20047;-70
2023/12/14 01:36:26;;;;;;;0.85;0.85;;;4.90;99.90;;;;;;5097202;28;20083;-70
2023/12/14 01:38:52;;;;;;;0.90;0.90;;;4.90;99.90;;;;;;5097140;28;20494;-70
2023/12/14 01:41:18;;;;;;;0.90;0.90;;;4.90;99.90;;;;;;5097165;28;20039;-70
2023/12/14 01:43:44;;;;;;;1.10;1.00;;;4.90;99.90;;;;;;5097112;28;20198;-70
2023/12/14 01:46:10;;;;;;;1.47;1.37;;;4.90;99.90;;;;;;5097113;28;20094;-70
2023/12/14 01:48:36;;;;;;;0.90;0.90;;;4.90;99.90;;;;;;5097053;28;20040;-70
2023/12/14 01:51:02;;;;;;;0.90;0.90;;;4.80;99.90;;;;;;5097280;28;20036;-70
2023/12/14 01:53:28;;;;;;;1.00;1.00;;;4.90;99.90;;;;;;5097027;28;20047;-70
2023/12/14 01:55:53;;;;;;;1.00;1.00;;;4.90;99.90;;;;;;5096836;28;20032;-70
2023/12/14 01:58:20;;;;;;;0.90;0.90;;;4.80;99.90;;;;;;5096918;28;20132;-70
2023/12/14 02:01:15;;;;;;;0.90;0.90;;;4.80;99.90;;;;;;5096387;28;20040;-70
2023/12/14 02:03:45;;;;;;;0.80;0.80;;;4.80;99.90;;;;;;5096745;28;20050;-70
2023/12/14 02:06:11;;;;;;;1.00;1.00;;;4.80;99.90;;;;;;5096707;28;20055;-70
2023/12/14 02:08:36;;;;;;;0.90;0.90;;;4.80;99.90;;;;;;5096638;28;20040;-70
2023/12/14 02:11:02;;;;;;;1.00;0.90;;;4.80;99.90;;;;;;5096509;28;20147;-70
2023/12/14 02:13:28;;;;;;;0.95;0.95;;;4.80;99.90;;;;;;5097133;28;20062;-70
2023/12/14 02:15:53;;;;;;;1.42;1.33;;;4.80;99.90;;;;;;5096532;28;20379;-70
2023/12/14 02:18:19;;;;;;;0.90;0.90;;;4.80;99.90;;;;;;5096815;28;20048;-70
2023/12/14 02:20:45;;;;;;;1.90;1.80;;;4.70;99.90;;;;;;5096497;28;20436;-70
2023/12/14 02:23:10;;;;;;;0.90;0.90;;;4.70;99.90;;;;;;5096464;28;20126;-70
2023/12/14 02:25:36;;;;;;;1.10;1.00;;;4.70;99.90;;;;;;5096073;28;20083;-70
2023/12/14 02:28:01;;;;;;;1.02;1.00;;;4.70;99.90;;;;;;5096356;28;20036;-70
2023/12/14 02:30:27;;;;;;;0.80;0.80;;;5.10;99.90;;;;;;5096280;28;20044;-70
2023/12/14 02:32:52;;;;;;;0.90;0.90;;;4.70;99.90;;;;;;5096383;28;20055;-70
2023/12/14 02:35:18;;;;;;;1.10;1.00;;;4.70;99.90;;;;;;5096358;28;20525;-70
2023/12/14 02:37:44;;;;;;;1.73;1.60;;;4.80;99.90;;;;;;5096222;28;20036;-70
2023/12/14 02:40:10;;;;;;;1.08;1.05;;;4.70;99.90;;;;;;5095948;28;20114;-70
2023/12/14 02:42:35;;;;;;;1.40;1.30;;;4.70;99.90;;;;;;5096005;28;20040;-70
2023/12/14 02:45:02;;;;;;;1.13;1.02;;;4.70;99.90;;;;;;5096367;28;20656;-70
2023/12/14 02:47:28;;;;;;;1.97;1.87;;;4.70;99.90;;;;;;5095971;28;20101;-70
2023/12/14 02:49:54;;;;;;;1.00;1.00;;;4.70;99.90;;;;;;5095917;28;20486;-70
2023/12/14 02:52:20;;;;;;;0.90;0.90;;;4.70;99.90;;;;;;5095885;28;20040;-70
2023/12/14 02:54:45;;;;;;;0.90;0.90;;;4.70;99.90;;;;;;5095825;28;20032;-70
2023/12/14 02:57:11;;;;;;;1.05;1.00;;;4.70;99.90;;;;;;5095770;28;20044;-70
2023/12/14 02:59:37;;;;;;;0.95;0.95;;;4.70;99.90;;;;;;5094437;28;20039;-70
2023/12/14 03:02:02;;;;;;;1.10;1.00;;;4.70;99.90;;;;;;5095585;28;20032;-70
2023/12/14 03:04:28;;;;;;;1.10;1.00;;;4.70;99.90;;;;;;5095593;28;20047;-70
2023/12/14 03:06:54;;;;;;;1.52;1.42;;;4.70;99.90;;;;;;5095371;28;20035;-70
2023/12/14 03:09:19;;;;;;;0.90;0.90;;;4.70;99.90;;;;;;5095264;28;20047;-70
2023/12/14 03:11:46;;;;;;;1.10;1.00;;;4.70;99.90;;;;;;5095343;28;20040;-70
2023/12/14 03:14:11;;;;;;;1.08;1.00;;;4.70;99.90;;;;;;5095340;28;20036;-70
2023/12/14 03:16:37;;;;;;;1.10;1.00;;;4.70;99.90;;;;;;5093899;28;20050;-70
2023/12/14 03:19:03;;;;;;;1.35;1.20;;;4.60;99.90;;;;;;5095212;28;20086;-70
2023/12/14 03:21:29;;;;;;;1.08;0.98;;;4.60;99.90;;;;;;5094587;28;20044;-70
2023/12/14 03:23:55;;;;;;;1.30;1.20;;;4.60;99.90;;;;;;5094799;28;20416;-70
2023/12/14 03:26:20;;;;;;;1.00;1.00;;;4.60;99.90;;;;;;5095002;28;20078;-70
2023/12/14 03:28:46;;;;;;;1.05;0.98;;;4.70;99.90;;;;;;5095068;28;20424;-70
2023/12/14 03:31:12;;;;;;;0.90;0.90;;;4.70;99.90;;;;;;5094946;28;20040;-70
2023/12/14 03:33:39;;;;;;;0.90;0.90;;;4.70;99.90;;;;;;5095114;28;20044;-70
2023/12/14 03:36:05;;;;;;;4.85;2.60;;;4.60;99.90;;;;;;5094978;28;20082;-70
2023/12/14 03:38:31;;;;;;;0.95;0.95;;;4.70;99.90;;;;;;5094970;28;20044;-70
2023/12/14 03:40:56;;;;;;;1.10;1.00;;;4.60;99.90;;;;;;5094794;28;20039;-70
2023/12/14 03:43:22;;;;;;;1.08;0.98;;;4.60;99.90;;;;;;5094874;28;20371;-70
2023/12/14 03:45:48;;;;;;;0.90;0.90;;;4.60;99.90;;;;;;5094831;28;20044;-70
2023/12/14 03:48:13;;;;;;;1.10;1.00;;;4.60;99.90;;;;;;5094946;28;20040;-70
2023/12/14 03:50:39;;;;;;;1.10;1.00;;;4.60;99.90;;;;;;5094726;28;20539;-70
2023/12/14 03:53:04;;;;;;;0.90;0.90;;;4.60;99.90;;;;;;5094723;28;20047;-70
2023/12/14 03:55:30;;;;;;;1.00;1.00;;;4.70;99.90;;;;;;5094307;28;20044;-70
2023/12/14 03:57:58;;;;;;;1.10;1.00;;;4.70;99.90;;;;;;5094595;28;20071;-70
2023/12/14 04:00:24;;;;;;;0.90;0.90;;;4.60;99.90;;;;;;5094433;28;20050;-70
2023/12/14 04:02:50;;;;;;;1.10;1.00;;;4.70;99.90;;;;;;5094451;28;20036;-70
2023/12/14 04:05:15;;;;;;;0.90;0.90;;;4.60;99.90;;;;;;5094476;28;20034;-70
2023/12/14 04:07:41;;;;;;;1.08;1.00;;;4.70;99.90;;;;;;5094359;28;20093;-70
2023/12/14 04:10:08;;;;;;;0.90;0.90;;;4.70;99.90;;;;;;5094297;28;20036;-70
2023/12/14 04:12:34;;;;;;;0.80;0.80;;;4.70;99.90;;;;;;5094751;28;20051;-70
2023/12/14 04:15:00;;;;;;;0.90;0.90;;;4.70;99.90;;;;;;5094314;28;20039;-70
2023/12/14 04:17:26;;;;;;;0.90;0.90;;;4.70;99.90;;;;;;5094324;28;20060;-70
2023/12/14 04:19:51;;;;;;;1.20;1.10;;;4.60;99.90;;;;;;5094349;28;20051;-70
2023/12/14 04:22:17;;;;;;;0.90;0.90;;;4.60;99.90;;;;;;5094161;28;20059;-70
2023/12/14 04:24:43;;;;;;;0.90;0.90;;;4.60;99.90;;;;;;5093876;28;20044;-70
2023/12/14 04:27:08;;;;;;;1.17;1.08;;;4.60;99.90;;;;;;5094136;28;20488;-70
2023/12/14 04:29:34;;;;;;;1.00;1.00;;;4.60;99.90;;;;;;5094510;28;20047;-70
2023/12/14 04:32:00;;;;;;;0.90;0.90;;;4.60;99.90;;;;;;5094004;28;20448;-70
2023/12/14 04:34:25;;;;;;;0.80;0.80;;;4.60;99.90;;;;;;5093217;28;20159;-70
2023/12/14 04:36:52;;;;;;;0.80;0.80;;;4.60;99.90;;;;;;5093944;28;20131;-70
2023/12/14 04:39:18;;;;;;;0.90;0.90;;;4.70;99.90;;;;;;5093855;28;20093;-70
2023/12/14 04:41:44;;;;;;;1.48;1.25;;;5.70;99.90;;;;;;5093886;28;20410;-70
2023/12/14 04:44:10;;;;;;;0.80;0.80;;;4.60;99.90;;;;;;5093892;28;20058;-70
2023/12/14 04:46:36;;;;;;;0.90;0.90;;;4.60;99.90;;;;;;5093841;28;20307;-70
2023/12/14 04:49:02;;;;;;;1.52;1.42;;;4.60;99.90;;;;;;5094009;28;20040;-70
2023/12/14 04:51:28;;;;;;;0.90;0.90;;;4.60;99.90;;;;;;5093763;28;20079;-70
2023/12/14 04:53:53;;;;;;;1.10;1.00;;;4.60;99.90;;;;;;5093731;28;20305;-70
2023/12/14 04:56:19;;;;;;;0.90;0.90;;;4.60;99.90;;;;;;5093477;28;20040;-70
2023/12/14 04:58:45;;;;;;;22.75;3.78;;;4.60;99.90;;;;;;5093775;28;20067;-70
2023/12/14 05:01:11;;;;;;;1.10;1.00;;;4.60;99.90;;;;;;5093532;28;20047;-70
2023/12/14 05:03:37;;;;;;;1.50;1.40;;;4.60;99.90;;;;;;5093720;28;20044;-70
2023/12/14 05:06:03;;;;;;;1.30;1.20;;;4.60;99.90;;;;;;5092727;28;20040;-70
2023/12/14 05:08:28;;;;;;;1.20;1.10;;;4.60;99.90;;;;;;5093766;28;20044;-70
2023/12/14 05:10:54;;;;;;;0.90;0.90;;;4.60;99.90;;;;;;5093484;28;20043;-70
2023/12/14 05:13:19;;;;;;;1.00;0.93;;;4.60;99.90;;;;;;5093617;28;20134;-70
2023/12/14 05:15:45;;;;;;;1.23;1.13;;;4.60;99.90;;;;;;5093513;28;20040;-70
2023/12/14 05:18:11;;;;;;;0.90;0.90;;;4.60;99.90;;;;;;5093462;28;20052;-70
2023/12/14 05:20:36;;;;;;;0.90;0.90;;;4.60;99.90;;;;;;5093477;28;20040;-70
2023/12/14 05:23:02;;;;;;;0.90;0.90;;;4.60;99.90;;;;;;5093460;28;20047;-70
2023/12/14 05:25:28;;;;;;;1.05;0.95;;;4.60;99.90;;;;;;5093401;28;20551;-70
2023/12/14 05:27:53;;;;;;;1.08;1.00;;;4.60;99.90;;;;;;5093939;28;20127;-70
2023/12/14 05:30:19;;;;;;;0.90;0.90;;;4.60;99.90;;;;;;5093440;28;20459;-70
2023/12/14 05:32:45;;;;;;;0.90;0.90;;;4.60;99.90;;;;;;5093545;28;20054;-70
2023/12/14 05:35:11;;;;;;;0.90;0.90;;;4.60;99.90;;;;;;5093584;28;20090;-70
2023/12/14 05:37:39;;;;;;;0.90;0.90;;;4.60;99.90;;;;;;5093380;28;20414;-70
2023/12/14 05:40:05;;;;;;;1.20;1.10;;;4.60;99.90;;;;;;5093234;28;20032;-70
2023/12/14 05:42:31;;;;;;;1.00;1.00;;;4.60;99.90;;;;;;5093653;28;20043;-70
2023/12/14 05:44:56;;;;;;;0.98;0.95;;;4.60;99.90;;;;;;5094066;28;20040;-70
2023/12/14 05:47:22;;;;;;;0.90;0.90;;;4.60;99.90;;;;;;5097335;28;20085;-70
2023/12/14 05:49:48;;;;;;;1.25;1.15;;;4.60;99.90;;;;;;5097105;28;20495;-70
2023/12/14 05:52:14;;;;;;;0.90;0.90;;;4.60;99.90;;;;;;5096758;28;20391;-76
2023/12/14 05:54:39;;;;;;;0.90;0.90;;;4.60;99.90;;;;;;5096782;28;20285;-77
2023/12/14 05:57:05;;;;;;;0.95;0.90;;;4.70;99.90;;;;;;5097016;28;20111;-72
2023/12/14 05:59:31;;;;;;;1.02;1.00;;;4.70;99.90;;;;;;5096756;28;20123;-70
2023/12/14 06:02:00;;;;;;;1.10;1.00;;;4.70;99.90;;;;;;5097115;28;20539;-70
2023/12/14 06:04:27;;;;;;;1.10;1.00;;;4.70;99.90;;;;;;5096753;28;20040;-75
2023/12/14 06:06:53;;;;;;;2.17;2.00;;;4.70;99.90;;;;;;5096846;28;20048;-70
2023/12/14 06:09:21;;;;;;;1.10;1.00;;;4.70;99.90;;;;;;5096709;28;20426;-70
2023/12/14 06:11:47;;;;;;;1.42;1.33;;;5.50;99.90;;;;;;5096664;28;20051;-70
2023/12/14 06:14:13;;;;;;;1.30;1.20;;;4.60;99.90;;;;;;5097002;28;20105;-71
2023/12/14 06:16:39;;;;;;;0.90;0.90;;;4.70;99.90;;;;;;5096447;28;20059;-70
2023/12/14 06:19:04;;;;;;;1.10;1.10;;;4.70;99.90;;;;;;5096302;28;20043;-70
2023/12/14 06:21:30;;;;;;;0.90;0.90;;;4.70;99.90;;;;;;5096438;28;20047;-70
2023/12/14 06:23:57;;;;;;;1.05;0.95;;;4.70;99.90;;;;;;5096184;28;20047;-70
2023/12/14 06:26:22;;;;;;;;;;;4.70;99.90;;;;;;5096893;28;20035;-70
2023/12/14 06:28:48;;;;;;;1.10;1.00;;;4.60;99.90;;;;;;5096367;28;19916;-70
2023/12/14 06:31:14;;;;;;;1.15;1.05;;;4.60;99.90;;;;;;5096278;28;20074;-70
2023/12/14 06:33:40;;;;;;;0.90;0.90;;;4.60;99.90;;;;;;5096315;28;20123;-70
2023/12/14 06:36:09;;;;;;;0.90;0.90;;;4.60;99.90;;;;;;5096426;28;20408;-70
2023/12/14 06:38:39;;;;;;;0.90;0.90;;;4.60;99.90;;;;;;5096456;28;20040;-70
2023/12/14 06:41:04;;;;;;;0.80;0.80;;;4.60;99.90;;;;;;5096044;28;20044;-70
2023/12/14 06:43:30;;;;;;;1.00;1.00;;;4.60;99.90;;;;;;5096299;28;20150;-70
2023/12/14 06:45:56;;;;;;;1.10;1.00;;;4.60;99.90;;;;;;5095045;28;20491;-70
2023/12/14 06:48:21;;;;;;;0.90;0.90;;;4.90;99.90;;;;;;5095998;28;20035;-70
2023/12/14 06:50:47;;;;;;;0.90;0.90;;;4.60;99.90;;;;;;5095924;28;20080;-70
2023/12/14 06:53:14;;;;;;;1.13;1.02;;;4.60;99.90;;;;;;5095812;28;20032;-71
2023/12/14 06:55:40;;;;;;;0.95;0.95;;;4.60;99.90;;;;;;5095816;28;20136;-70
2023/12/14 06:58:11;;;;;;;0.90;0.90;;;4.60;99.90;;;;;;5094976;28;20480;-70
2023/12/14 07:00:37;;;;;;;0.90;0.90;;;4.60;99.90;;;;;;5096022;28;20036;-71
2023/12/14 07:03:03;;;;;;;1.00;1.00;;;4.60;99.90;;;;;;5095558;28;20468;-72
2023/12/14 07:05:28;;;;;;;1.20;1.10;;;4.60;99.90;;;;;;5095624;28;20040;-70
2023/12/14 07:07:56;;;;;;;1.10;1.10;;;4.60;99.90;;;;;;5095471;28;20047;-70
2023/12/14 07:10:22;;;;;;;0.90;0.90;;;4.60;99.90;;;;;;5095685;28;20044;-70
2023/12/14 07:12:47;;;;;;;0.88;0.88;;;4.60;99.90;;;;;;5095439;28;20117;-70
2023/12/14 07:15:13;;;;;;;0.90;0.90;;;4.60;99.90;;;;;;5095690;28;20074;-70
2023/12/14 07:17:39;;;;;;;1.33;1.23;;;4.60;99.90;;;;;;5095502;28;20375;-70
2023/12/14 07:20:06;;;;;;;0.90;0.90;;;4.60;99.90;;;;;;5095232;28;20040;-70
2023/12/14 07:22:32;;;;;;;1.10;1.00;;;4.60;99.90;;;;;;5095121;28;20122;-71
2023/12/14 07:24:57;;;;;;;0.90;0.90;;;4.60;99.90;;;;;;5095242;28;20047;-70
2023/12/14 07:27:23;;;;;;;1.50;1.00;;;4.70;99.90;;;;;;5095242;28;20036;-71
2023/12/14 07:29:48;;;;;;;0.85;0.85;;;4.70;99.90;;;;;;5094994;28;20039;-71
2023/12/14 07:32:14;;;;;;;0.80;0.80;;;4.60;99.90;;;;;;5095134;28;20032;-70
2023/12/14 07:34:39;;;;;;;0.80;0.80;;;4.60;99.90;;;;;;5094911;28;20071;-70
2023/12/14 07:37:05;;;;;;;0.90;0.90;;;4.60;99.90;;;;;;5094789;28;20046;-70
2023/12/14 07:39:31;;;;;;;6.53;2.45;;;4.60;99.90;;;;;;5095488;28;20072;-70
2023/12/14 07:41:58;;;;;;;0.90;0.90;;;4.60;99.90;;;;;;5094636;28;20083;-70
2023/12/14 07:44:25;;;;;;;0.90;0.90;;;4.60;99.90;;;;;;5094967;28;20040;-70
2023/12/14 07:46:50;;;;;;;;;;;4.60;99.90;;;;;;5095029;28;20115;-70
2023/12/14 07:49:20;;;;;;;0.85;0.85;;;4.60;99.90;;;;;;5094867;28;19969;-70
2023/12/14 07:51:46;;;;;;;0.90;0.90;;;4.70;99.90;;;;;;5094447;28;20040;-70
2023/12/14 07:54:11;;;;;;;0.90;0.90;;;4.60;99.90;;;;;;5094766;28;20044;-72
2023/12/14 07:56:37;;;;;;;0.90;0.90;;;4.60;99.90;;;;;;5094727;28;20477;-71
2023/12/14 07:59:06;;;;;;;0.90;0.90;;;4.70;99.90;;;;;;5094592;28;20413;-71
2023/12/14 08:01:32;;;;;;;0.90;0.90;;;4.70;99.90;;;;;;5094815;28;20046;-71
2023/12/14 08:03:57;;;;;;;0.90;0.90;;;4.70;99.90;;;;;;5094622;28;20442;-70
2023/12/14 08:06:23;;;;;;;1.10;1.00;;;4.70;99.90;;;;;;5094518;28;20044;-69
2023/12/14 08:08:49;;;;;;;0.90;0.90;;;4.70;99.90;;;;;;5094601;28;20043;-69
2023/12/14 08:11:15;;;;;;;0.90;0.90;;;4.70;99.90;;;;;;5094392;28;20039;-69
2023/12/14 08:13:40;;;;;;;14.75;3.90;;;4.70;99.90;;;;;;5094627;28;20044;-69
2023/12/14 08:16:07;;;;;;;2.90;2.35;;;5.20;99.90;;;;;;5094517;28;20075;-69
2023/12/14 08:18:33;;;;;;;0.80;0.80;;;4.70;99.90;;;;;;5094153;28;20134;-71
2023/12/14 08:20:59;;;;;;;0.90;0.90;;;4.70;99.90;;;;;;5093671;28;20193;-73
2023/12/14 08:23:27;;;;;;;0.80;0.80;;;4.70;99.90;;;;;;5094170;28;20044;-69
2023/12/14 08:25:56;;;;;;;0.90;0.90;;;4.80;99.90;;;;;;5094150;28;20039;-71
2023/12/14 08:28:23;;;;;;;0.90;0.90;;;5.20;99.90;;;;;;5094177;28;20044;-71
2023/12/14 08:30:49;;;;;;;0.90;0.90;;;4.80;99.90;;;;;;5093978;28;20035;-70
2023/12/14 08:33:15;;;;;;;0.90;0.90;;;5.30;99.90;;;;;;5094077;28;20043;-70
2023/12/14 08:35:41;;;;;;;1.20;1.10;;;4.80;99.90;;;;;;5093962;28;20360;-71
2023/12/14 08:38:07;;;;;;;1.08;1.00;;;4.80;99.90;;;;;;5094028;28;20077;-71
2023/12/14 08:40:32;;;;;;;0.82;0.82;;;4.80;99.90;;;;;;5093904;28;20066;-71
2023/12/14 08:42:58;;;;;;;0.98;0.98;;;4.80;99.90;;;;;;5093889;28;20035;-70
2023/12/14 08:45:24;;;;;;;0.90;0.90;;;4.80;99.90;;;;;;5093939;28;20032;-70
2023/12/14 08:47:50;;;;;;;0.85;0.85;;;4.80;99.90;;;;;;5093949;28;20432;-70
2023/12/14 08:50:15;;;;;;;1.10;1.00;;;4.80;99.90;;;;;;5093643;28;20036;-71
2023/12/14 08:52:41;;;;;;;1.50;1.40;;;4.90;99.90;;;;;;5093827;28;20040;-71
2023/12/14 08:55:08;;;;;;;18.38;1.70;;;4.90;99.90;;;;;;5093817;28;20032;-70
2023/12/14 08:57:34;;;;;;;0.90;0.90;;;4.90;99.90;;;;;;5094077;28;20067;-71
2023/12/14 09:00:01;;;;;;;1.20;1.10;;;5.00;99.90;;;;;;5093489;28;20383;-72
2023/12/14 09:02:26;;;;;;;1.10;1.00;;;4.90;99.90;;;;;;5093918;28;20044;-72
2023/12/14 09:04:52;;;;;;;0.90;0.90;;;4.90;99.90;;;;;;5093744;28;20531;-69
2023/12/14 09:07:18;;;;;;;1.52;1.42;;;4.90;99.90;;;;;;5093642;28;20044;-70
2023/12/14 09:09:43;;;;;;;0.90;0.90;;;5.00;99.90;;;;;;5093755;28;20040;-71
2023/12/14 09:12:09;;;;;;;0.90;0.90;;;5.00;99.90;;;;;;5093688;28;20093;-74
2023/12/14 09:14:35;;;;;;;0.80;0.80;;;5.00;99.90;;;;;;5093608;28;20144;-71
2023/12/14 09:17:00;;;;;;;0.90;0.90;;;5.00;99.90;;;;;;5093296;28;20098;-72
2023/12/14 09:19:26;;;;;;;1.00;1.00;;;5.00;99.90;;;;;;5093608;28;20047;-73
2023/12/14 09:21:51;;;;;;;0.90;0.90;;;5.00;99.90;;;;;;5097697;28;20040;-75
2023/12/14 09:24:18;;;;;;;0.90;0.90;;;5.00;99.90;;;;;;5097637;28;20068;-76
2023/12/14 09:26:43;;;;;;;0.90;0.90;;;5.00;99.90;;;;;;5096764;28;20047;-72
2023/12/14 09:29:09;;;;;;;0.90;0.90;;;5.00;99.90;;;;;;5096374;28;20456;-75
2023/12/14 09:31:35;;;;;;;0.82;0.82;;;5.10;99.90;;;;;;5097714;28;20035;-76
2023/12/14 09:34:01;;;;;;;1.40;1.30;;;5.10;99.90;;;;;;5097419;28;20367;-75
2023/12/14 09:36:26;;;;;;;2.13;1.92;;;5.10;99.90;;;;;;5097424;28;20079;-73
2023/12/14 09:38:52;;;;;;;0.75;0.75;;;5.10;99.90;;;;;;5097344;28;20072;-76
2023/12/14 09:41:18;;;;;;;1.00;1.00;;;5.10;99.90;;;;;;5097287;28;20051;-72
2023/12/14 09:43:45;;;;;;;0.90;0.90;;;5.10;99.90;;;;;;5097098;28;20040;-75
2023/12/14 09:46:11;;;;;;;0.80;0.80;;;5.10;99.90;;;;;;5097185;28;20411;-72
2023/12/14 09:48:37;;;;;;;1.03;0.97;;;5.10;99.90;;;;;;5097154;28;20094;-73
2023/12/14 09:51:03;;;;;;;0.80;0.80;;;5.20;99.90;;;;;;5095579;28;20071;-74
2023/12/14 09:53:28;;;;;;;0.90;0.90;;;5.20;99.90;;;;;;5097113;28;20040;-75
2023/12/14 09:55:54;;;;;;;0.77;0.77;;;5.20;99.90;;;;;;5096981;28;20051;-76
2023/12/14 09:58:19;;;;;;;0.90;0.90;;;5.30;99.90;;;;;;5097062;28;20040;-71
2023/12/14 10:00:45;;;;;;;0.90;0.90;;;5.20;99.90;;;;;;5096833;28;20028;-74
2023/12/14 10:03:28;;;;;;;0.90;0.90;;;5.20;99.90;;;;;;5096891;28;20185;-72
2023/12/14 10:05:57;;;;;;;1.05;1.00;;;5.20;99.90;;;;;;5096961;28;20111;-76
2023/12/14 10:08:23;;;;;;;0.90;0.90;;;5.70;99.90;;;;;;5096700;28;20036;-76
2023/12/14 10:10:52;;;;;;;1.00;1.00;;;5.20;99.90;;;;;;5097024;28;20379;-74
2023/12/14 10:13:38;;;;;;;0.80;0.80;;;5.20;99.90;;;;;;5096390;28;20517;-73
2023/12/14 10:16:04;;;;;;;1.50;1.40;;;5.80;99.90;;;;;;5096688;28;20039;-75
2023/12/14 10:18:34;;;;;;;0.90;0.90;;;5.20;99.90;;;;;;5095360;28;20048;-74
2023/12/14 10:21:00;;;;;;;0.90;0.90;;;5.30;99.90;;;;;;5095851;28;20467;-72
2023/12/14 10:23:27;;;;;;;0.90;0.90;;;5.30;99.90;;;;;;5095781;28;20032;-71
2023/12/14 10:25:53;;;;;;;0.80;0.80;;;5.20;99.90;;;;;;5095927;28;20078;-75
2023/12/14 10:28:19;;;;;;;0.80;0.80;;;5.30;99.90;;;;;;5096337;28;20047;-76
2023/12/14 10:30:44;;;;;;;0.80;0.80;;;5.30;99.90;;;;;;5095561;28;20032;-75
2023/12/14 10:33:10;;;;;;;1.20;1.10;;;5.20;99.90;;;;;;5095289;28;20361;-74
2023/12/14 10:35:36;;;;;;;1.20;1.10;;;5.30;99.90;;;;;;5096185;28;20050;-74
2023/12/14 10:38:04;;;;;;;0.90;0.90;;;5.30;99.90;;;;;;5096211;28;20044;-73
2023/12/14 10:40:31;;;;;;;0.80;0.80;;;5.30;99.90;;;;;;5095817;28;20282;-73
2023/12/14 10:42:59;;;;;;;1.00;0.90;;;5.30;99.90;;;;;;5095771;28;20052;-72
2023/12/14 10:45:32;;;;;;;1.05;1.05;;;6.10;99.90;;;;;;5093986;28;20058;-72
2023/12/14 10:48:00;;;;;;;0.80;0.80;;;5.30;99.90;;;;;;5094615;28;20090;-73
2023/12/14 10:50:31;;;;;;;0.80;0.80;;;5.40;99.90;;;;;;5094299;28;20043;-72
2023/12/14 10:53:01;;;;;;;1.30;1.20;;;5.40;99.90;;;;;;5094258;28;20108;-72
2023/12/14 10:55:43;;;;;;;0.90;0.90;;;5.40;99.90;;;;;;5094146;28;20036;-75
2023/12/14 10:58:09;;;;;;;1.10;1.00;;;5.40;99.90;;;;;;5094397;28;20082;-70
2023/12/14 11:00:36;;;;;;;0.90;0.90;;;5.40;99.90;;;;;;5095737;28;20046;-71
2023/12/14 11:03:07;;;;;;;0.98;0.98;;;5.40;99.90;;;;;;5095279;28;20543;-72
2023/12/14 11:05:34;;;;;;;0.80;0.80;;;5.40;99.90;;;;;;5095687;28;20048;-72
2023/12/14 11:08:09;;;;;;;0.90;0.90;;;5.70;99.90;;;;;;5095378;28;20043;-72
2023/12/14 11:10:39;;;;;;;0.80;0.80;;;5.40;99.90;;;;;;5095394;28;20574;-72
2023/12/14 11:13:13;;;;;;;0.90;0.90;;;5.40;99.90;;;;;;5095557;28;20423;-71
2023/12/14 11:15:51;;;;;;;0.80;0.80;;;5.40;99.90;;;;;;5094123;28;20087;-73
2023/12/14 11:18:25;;;;;;;1.58;1.48;;;5.40;99.90;;;;;;5095253;28;20139;-72
2023/12/14 11:20:53;;;;;;;1.00;1.00;;;5.40;99.90;;;;;;5095029;28;20032;-73
2023/12/14 11:23:24;;;;;;;0.80;0.80;;;5.40;99.90;;;;;;5095235;28;20054;-74
2023/12/14 11:25:56;;;;;;;1.02;1.00;;;5.50;99.90;;;;;;5094871;28;20132;-73
2023/12/14 11:28:22;;;;;;;0.90;0.90;;;5.50;99.90;;;;;;5095082;28;20047;-73
2023/12/14 11:30:48;;;;;;;0.80;0.80;;;5.50;99.90;;;;;;5095042;28;20043;-78
2023/12/14 11:33:15;;;;;;;1.10;1.00;;;5.50;99.90;;;;;;5096592;28;20090;-76
2023/12/14 11:35:41;;;;;;;0.80;0.80;;;5.50;99.90;;;;;;5098967;28;20126;-72
2023/12/14 11:38:13;;;;;;;0.80;0.80;;;5.50;99.90;;;;;;5094895;28;20185;-71
2023/12/14 11:40:42;;;;;;;0.80;0.80;;;5.50;99.90;;;;;;5094979;28;20036;-72
2023/12/14 11:43:09;;;;;;;0.80;0.80;;;5.50;99.90;;;;;;5094364;28;20047;-70
2023/12/14 11:45:35;;;;;;;;;;;5.50;99.90;;;;;;5094930;28;20136;-71
2023/12/14 11:48:06;;;;;;;0.85;0.85;;;5.50;99.90;;;;;;5094589;28;20398;-72
2023/12/14 11:50:35;;;;;;;1.13;1.10;;;5.50;99.90;;;;;;5094462;28;20133;-73
2023/12/14 11:53:04;;;;;;;1.13;1.10;;;5.50;99.90;;;;;;5094615;28;20036;-74
2023/12/14 11:55:35;;;;;;;1.10;1.00;;;5.50;99.90;;;;;;5094300;28;20153;-75
2023/12/14 11:58:01;;;;;;;0.95;0.95;;;5.50;99.90;;;;;;5094721;28;20044;-74
2023/12/14 12:00:28;;;;;;;1.08;1.08;;;5.50;99.90;;;;;;5094292;28;20040;-72
2023/12/14 12:03:11;;;;;;;1.20;1.10;;;5.50;99.90;;;;;;5094209;28;20043;-70
2023/12/14 12:05:45;;;;;;;0.85;0.85;;;5.50;99.90;;;;;;5094462;28;20047;-69
2023/12/14 12:08:11;;;;;;;1.10;1.00;;;5.60;99.90;;;;;;5094705;28;20125;-71
2023/12/14 12:10:38;;;;;;;0.80;0.80;;;5.60;99.90;;;;;;5094316;28;20421;-70
2023/12/14 12:13:11;;;;;;;0.90;0.90;;;5.80;99.90;;;;;;5095226;28;20047;-70
2023/12/14 12:15:37;;;;;;;0.90;0.90;;;5.60;99.90;;;;;;5098562;28;20044;-73
2023/12/14 12:18:08;;;;;;;1.10;1.00;;;5.60;99.90;;;;;;5094280;28;20052;-70
2023/12/14 12:20:35;;;;;;;1.30;1.20;;;5.60;99.90;;;;;;5094274;28;20074;-72
2023/12/14 12:23:01;;;;;;;0.80;0.80;;;5.60;99.90;;;;;;5094219;28;20079;-69
2023/12/14 12:25:27;;;;;;;0.90;0.90;;;6.40;99.90;;;;;;5094121;28;20530;-73
2023/12/14 12:27:55;;;;;;;0.80;0.80;;;5.70;99.90;;;;;;5094120;28;20074;-72
2023/12/14 12:30:21;;;;;;;0.85;0.85;;;5.70;99.90;;;;;;5094122;28;20050;-71
2023/12/14 12:32:47;;;;;;;0.90;0.90;;;5.70;99.90;;;;;;5094096;28;20479;-79
2023/12/14 12:35:13;;;;;;;0.90;0.90;;;5.70;99.90;;;;;;5092822;28;20069;-74
2023/12/14 12:37:39;;;;;;;1.45;1.35;;;5.70;99.90;;;;;;5091688;28;20044;-74
2023/12/14 12:40:05;;;;;;;0.82;0.82;;;5.70;99.90;;;;;;5093126;28;20036;-71
2023/12/14 12:42:31;;;;;;;0.90;0.90;;;6.30;99.90;;;;;;5093469;28;20098;-73
2023/12/14 12:44:57;;;;;;;0.90;0.90;;;5.70;99.90;;;;;;5094312;28;20044;-74
2023/12/14 12:47:22;;;;;;;1.00;1.00;;;5.70;99.90;;;;;;5093871;28;20040;-79
2023/12/14 12:49:48;;;;;;;1.05;1.00;;;5.70;99.90;;;;;;5093017;28;20036;-79
2023/12/14 12:52:13;;;;;;;0.90;0.90;;;5.70;99.90;;;;;;5093975;28;20450;-79
2023/12/14 12:54:39;;;;;;;0.80;0.80;;;5.70;99.90;;;;;;5093132;28;20047;-72